PDT,Max TemperatureF,Mean TemperatureF,Min TemperatureF,Max Dew PointF,MeanDew PointF,Min DewpointF,Max Humidity, Mean Humidity, Min Humidity, Max Sea Level PressureIn, Mean Sea Level PressureIn, Min Sea Level PressureIn, Max VisibilityMiles, Mean VisibilityMiles, Min VisibilityMiles, Max Wind SpeedMPH, Mean Wind SpeedMPH, Max Gust SpeedMPH,PrecipitationIn, CloudCover, Events, WindDirDegrees
2013-8-1,107,88,71,40,35,25,27,17,6,29.88,29.80,29.70,10,10,10,26,11,32,0.00,1,,198
2013-8-2,100,82,64,38,33,26,34,18,7,29.86,29.80,29.75,10,10,10,17,6,23,0.00,0,,179
2013-8-3,105,82,63,32,26,18,24,13,5,29.91,29.84,29.78,10,10,10,17,7,18,0.00,0,,184
2013-8-4,106,87,68,33,24,2,22,12,4,29.91,29.85,29.79,10,10,10,17,7,23,0.00,0,,187
2013-8-5,107,88,69,32,26,18,22,12,4,29.91,29.84,29.76,10,10,10,21,7,25,0.00,1,,176
2013-8-6,108,86,66,38,31,26,21,14,6,29.90,29.84,29.78,10,10,10,22,7,31,0.00,2,,188
2013-8-7,102,88,73,42,32,21,27,16,6,29.89,29.83,29.78,10,10,10,30,15,39,0.00,0,,205
2013-8-8,100,82,66,40,32,20,29,17,6,29.88,29.82,29.77,10,10,10,18,10,29,0.00,0,,202
2013-8-9,99,82,64,41,32,14,34,19,5,29.88,29.82,29.78,10,10,10,16,9,26,0.00,0,,189
2013-8-10,100,82,64,41,38,28,36,21,8,29.93,29.86,29.82,10,10,10,18,9,26,0.00,0,,191
2013-8-11,100,83,66,43,35,23,33,19,6,29.92,29.86,29.78,10,10,10,14,6,20,0.00,0,,192
2013-8-12,105,86,66,41,35,23,36,19,6,29.91,29.84,29.78,10,10,10,15,6,22,0.00,0,,191
2013-8-13,107,85,64,37,31,22,29,15,6,30.00,29.88,29.80,10,10,10,10,5,17,0.00,0,,190
2013-8-14,108,88,68,35,28,18,27,13,4,29.90,29.84,29.77,10,10,10,12,5,21,0.00,0,,209
2013-8-15,109,90,71,43,35,26,22,14,8,29.90,29.84,29.78,10,10,9,16,8,25,0.00,1,,189
2013-8-16,111,94,77,49,42,35,25,17,9,29.91,29.85,29.78,10,10,10,21,10,26,0.00,0,,189
2013-8-17,111,94,77,48,41,26,32,18,6,29.89,29.81,29.70,10,10,10,17,8,24,0.00,0,,173
2013-8-18,109,90,73,68,50,38,65,29,12,29.94,29.85,29.74,10,9,2,30,8,48,0.10,3,Rain,116
2013-8-19,102,88,73,65,59,54,76,45,22,30.03,29.91,29.80,10,10,3,13,5,20,0.23,5,Rain,190
2013-8-20,108,91,75,56,47,32,48,24,8,29.86,29.81,29.75,10,10,10,17,7,20,0.00,1,,206
2013-8-21,107,94,80,45,42,37,25,17,10,29.88,29.83,29.76,10,10,10,17,8,23,0.00,2,,192
2013-8-22,108,92,77,45,41,34,32,18,10,29.90,29.82,29.72,10,10,10,28,8,33,0.00,1,,178
2013-8-23,105,88,72,44,34,19,33,17,5,29.83,29.76,29.66,10,10,10,21,10,32,0.00,0,,184
2013-8-24,104,86,69,44,33,14,35,18,4,29.81,29.76,29.70,10,10,10,17,9,30,0.00,0,,174
2013-8-25,102,86,69,61,40,24,50,24,7,29.92,29.85,29.77,10,10,10,21,8,30,0.00,0,,179
2013-8-26,96,82,68,62,58,49,58,44,28,29.99,29.92,29.86,10,10,10,16,6,23,0.00,3,,137
2013-8-27,100,86,73,61,59,57,57,40,27,29.90,29.83,29.74,10,10,10,10,4,,0.00,4,,193
2013-8-28,106,89,73,58,55,50,55,33,18,29.86,29.81,29.76,10,10,10,15,8,23,0.00,1,,190
2013-8-29,108,92,77,62,52,49,40,27,14,29.95,29.89,29.84,10,10,10,14,7,21,0.00,0,,150
2013-8-30,105,92,81,64,59,54,43,34,23,29.99,29.92,29.85,10,10,10,15,6,23,0.00,1,,151
2013-8-31,105,93,81,61,57,49,45,31,19,29.93,29.85,29.75,10,10,10,18,7,23,0.00,0,,175